createdAt,value
2023-03-23T15:58:04.936Z,2.20
2023-03-23T16:01:05.375Z,3.20
2023-03-23T16:04:12.871Z,1.90
2023-03-23T16:07:20.340Z,2.80
2023-03-23T16:10:29.452Z,4.30
2023-03-23T16:13:37.037Z,3.60
2023-03-23T16:16:44.281Z,3.10
2023-03-23T16:19:53.552Z,3.20
2023-03-23T16:23:00.852Z,3.90
2023-03-23T16:26:08.029Z,3.40
2023-03-23T16:29:33.752Z,2.70
2023-03-23T16:32:22.288Z,2.30
2023-03-23T16:35:29.484Z,1.40
2023-03-23T16:38:49.939Z,4.00
2023-03-23T16:41:43.498Z,2.60
2023-03-23T16:44:50.987Z,4.20
2023-03-23T16:47:58.902Z,5.50
2023-03-23T16:51:07.334Z,5.30
2023-03-23T16:54:15.165Z,7.70
2023-03-23T16:57:22.597Z,4.60
2023-03-23T17:00:32.004Z,5.70
2023-03-23T17:03:40.698Z,3.70
2023-03-23T17:06:39.027Z,4.90
2023-03-23T17:09:47.928Z,7.40
2023-03-23T17:12:55.694Z,5.50
2023-03-23T17:16:03.245Z,5.00
2023-03-23T17:19:10.745Z,6.10
2023-03-23T17:22:19.692Z,6.30
2023-03-23T17:25:27.319Z,7.80
2023-03-23T17:28:35.361Z,6.10
2023-03-23T17:31:43.851Z,5.30
2023-03-23T17:34:51.572Z,4.50
2023-03-23T17:37:59.454Z,4.00
2023-03-23T17:41:08.143Z,4.20
2023-03-23T17:44:15.840Z,2.90
2023-03-23T17:47:23.583Z,3.40
2023-03-23T17:50:32.148Z,4.40
2023-03-23T17:53:39.993Z,2.30
2023-03-23T17:56:47.902Z,2.50
2023-03-23T17:59:55.233Z,4.60
2023-03-23T18:03:04.801Z,1.90
2023-03-23T18:06:12.229Z,2.90
2023-03-23T18:09:19.789Z,2.40
2023-03-23T18:12:29.517Z,4.00
2023-03-23T18:15:37.307Z,2.50
2023-03-23T18:18:45.100Z,4.50
2023-03-23T18:21:54.101Z,3.10
2023-03-23T18:25:01.626Z,3.20
2023-03-23T18:28:09.342Z,8.10
2023-03-23T18:31:19.572Z,6.40
2023-03-23T18:34:27.197Z,5.90
2023-03-23T18:37:36.979Z,8.40
2023-03-23T18:40:44.750Z,6.40
2023-03-23T18:43:55.688Z,6.90
2023-03-23T18:47:04.625Z,8.60
2023-03-23T18:50:12.318Z,7.20
2023-03-23T18:53:21.830Z,6.30
2023-03-23T18:56:29.314Z,8.30
2023-03-23T18:59:36.602Z,8.80
2023-03-23T19:02:46.170Z,6.20
2023-03-23T19:05:48.775Z,7.90
2023-03-23T19:08:56.698Z,9.10
2023-03-23T19:12:06.717Z,10.50
2023-03-23T19:15:14.628Z,7.70
2023-03-23T19:18:22.298Z,5.70
2023-03-23T19:21:32.636Z,6.20
2023-03-23T19:24:40.596Z,6.90
2023-03-23T19:28:33.715Z,8.00
2023-03-23T19:30:52.550Z,7.10
2023-03-23T19:34:01.770Z,6.20
2023-03-23T19:37:11.473Z,5.90
2023-03-23T19:40:37.324Z,7.20
2023-03-23T19:43:26.582Z,7.40
2023-03-23T19:46:35.380Z,12.80
2023-03-23T19:49:43.548Z,11.20
2023-03-23T19:52:52.838Z,9.80
2023-03-23T19:56:00.642Z,10.30
2023-03-23T19:59:08.919Z,10.80
2023-03-23T20:02:18.345Z,11.20
2023-03-23T20:05:25.705Z,11.80
2023-03-23T20:08:33.376Z,13.00
2023-03-23T20:11:40.938Z,12.40
2023-03-23T20:14:49.775Z,12.00
2023-03-23T20:17:58.406Z,13.90
2023-03-23T20:21:06.726Z,16.80
2023-03-23T20:24:16.070Z,16.90
2023-03-23T20:27:23.287Z,18.00
2023-03-23T20:30:31.181Z,16.90
2023-03-23T20:33:40.433Z,17.40
2023-03-23T20:36:47.580Z,14.60
2023-03-23T20:39:55.505Z,13.20
2023-03-23T20:43:04.151Z,15.20
2023-03-23T20:46:12.506Z,20.00
2023-03-23T20:49:20.108Z,15.10
2023-03-23T20:52:27.315Z,13.60
2023-03-23T20:55:36.570Z,16.10
2023-03-23T20:58:44.130Z,13.60
2023-03-23T21:01:51.843Z,13.60
2023-03-23T21:05:00.944Z,13.00
2023-03-23T21:08:08.066Z,15.20
2023-03-23T21:11:16.305Z,12.00
2023-03-23T21:14:25.528Z,12.90
2023-03-23T21:17:32.835Z,15.00
2023-03-23T21:20:40.993Z,12.70
2023-03-23T21:23:50.009Z,16.40
2023-03-23T21:26:57.749Z,14.20
2023-03-23T21:30:05.963Z,16.20
2023-03-23T21:33:13.479Z,14.60
2023-03-23T21:36:22.538Z,15.30
2023-03-23T21:39:30.406Z,13.00
2023-03-23T21:42:38.157Z,12.00
2023-03-23T21:45:47.132Z,13.90
2023-03-23T21:48:55.110Z,12.10
2023-03-23T21:52:02.702Z,12.40
2023-03-23T21:55:11.621Z,11.20
2023-03-23T21:58:19.216Z,10.90
2023-03-23T22:01:27.263Z,10.40
2023-03-23T22:04:36.239Z,9.20
2023-03-23T22:07:43.828Z,9.70
2023-03-23T22:11:00.971Z,8.40
2023-03-23T22:13:56.390Z,8.10
2023-03-23T22:17:05.564Z,7.20
2023-03-23T22:20:13.571Z,5.00
2023-03-23T22:23:20.969Z,5.00
2023-03-23T22:26:30.442Z,5.80
2023-03-23T22:29:38.497Z,5.70
2023-03-23T22:32:45.884Z,5.80
2023-03-23T22:35:55.408Z,7.80
2023-03-23T22:39:03.238Z,5.30
2023-03-23T22:42:12.369Z,7.00
2023-03-23T22:45:12.087Z,4.90
2023-03-23T22:48:19.887Z,5.40
2023-03-23T22:51:27.743Z,7.30
2023-03-23T22:54:35.799Z,5.20
2023-03-23T22:57:44.676Z,4.90
2023-03-23T23:00:52.457Z,4.90
2023-03-23T23:04:00.470Z,4.20
2023-03-23T23:07:12.829Z,3.90
2023-03-23T23:10:10.073Z,5.80
2023-03-23T23:13:17.828Z,5.20
2023-03-23T23:16:27.291Z,4.40
2023-03-23T23:19:35.041Z,3.70
2023-03-23T23:22:43.866Z,4.60
2023-03-23T23:25:43.468Z,7.60
2023-03-23T23:28:51.046Z,5.60
2023-03-23T23:31:58.172Z,3.90
2023-03-23T23:35:05.844Z,3.20
2023-03-23T23:38:14.444Z,5.00
2023-03-23T23:41:22.408Z,6.00
2023-03-23T23:44:30.582Z,6.40
2023-03-23T23:47:39.430Z,4.80
2023-03-23T23:50:47.754Z,5.90
2023-03-23T23:53:56.015Z,3.40
2023-03-23T23:57:04.748Z,4.70
